Mayo, Florida
Current Conditions -  °F | °C
As of 12:15 PM on Sunday 23 Nov 2014 (Local Time) from K24J Reporting Station
Overcast Overcast  
Wind Chill: 75°   Ceiling: 1400
Heat Index: 75°   Visibility: 8mi
Dew Point: 75°   Wind: 5mph
Humidity: 100%   Direction: 170°S
Pressure: 29.93"   Gusts: NA
Location:  30.05°N, 83.17°W
Report Text: K24J 231715Z AUTO 17004KT 8SM BKN014 OVC020 24/24 A2993 RMK AO1
Loading
Personal Weather Stations






























Interactive Weather Map New forecast layout! Learn more

10-Day Weather Forecast

Advertisements
Track Severe Weather on mobile